< Cyclone 198506 1985 Season Cyclone 198508 >
Cyclone 198507 (HUBERT)
General InformationTrack Information on Google MapsDetailed Wind InformationList of All Images || ResourceGoogle EarthGE AnimationAtom FeedGeoJSON
Detalied Best Track (Time Zone = UTC)
Year Month Day Hour Lat. Long. Pressure (hPa) Wind (kt) Class Image Chart
1985 2 10 00 -14.1 129.0 1001 0 0 Image --
1985 2 10 06 -14.1 128.5 999 0 0 Image --
1985 2 10 12 -14.2 127.9 998 0 0 Image --
1985 2 10 18 -14.2 127.3 998 0 0 Image --
1985 2 11 00 -14.3 126.5 997 35 3 Image --
1985 2 11 06 -14.5 125.7 996 37 3 Image --
1985 2 11 12 -14.8 124.9 995 39 3 Image --
1985 2 11 18 -15.2 124.0 993 43 3 Image --
1985 2 12 00 -15.7 123.2 990 47 3 Image --
1985 2 12 06 -15.7 122.2 987 51 4 Image --
1985 2 12 12 -15.7 120.4 984 54 4 Image --
1985 2 12 18 -15.7 120.0 976 66 5 Image --
1985 2 13 00 -15.9 118.9 973 70 5 Image --
1985 2 13 06 -16.1 117.4 969 74 5 Image --
1985 2 13 12 -16.4 116.1 962 76 5 Image --
1985 2 13 18 -16.9 114.4 954 91 5 Image --
1985 2 14 00 -17.3 112.4 954 91 5 Image --
1985 2 14 06 -17.7 110.6 956 89 5 Image --
1985 2 14 12 -18.2 109.0 959 86 5 Image --
1985 2 14 18 -18.8 107.3 961 84 5 Image --
1985 2 15 00 -19.2 105.5 963 82 5 Image --
1985 2 15 06 -19.4 103.5 964 80 5 Image --
1985 2 15 12 -19.3 101.5 970 74 5 Image --
1985 2 15 18 -19.1 99.6 978 64 5 Image --
1985 2 16 00 -18.9 97.8 981 60 4 Image --
1985 2 16 06 -18.7 96.0 985 54 4 Image --
1985 2 16 12 -18.5 94.8 986 53 4 Image --
1985 2 16 18 -18.3 93.7 987 51 4 Image --
1985 2 17 00 -18.2 92.2 988 51 4 Image --
1985 2 17 06 -18.3 90.7 988 51 4 Image --
1985 2 17 12 -18.4 89.3 989 47 3 Image --
1985 2 17 18 -18.5 88.0 990 47 3 Image --
1985 2 18 00 -18.6 86.8 992 43 3 Image --
1985 2 18 06 -18.8 85.8 993 43 3 Image --
1985 2 18 12 -19.1 84.9 995 37 3 Image --
1985 2 18 18 -19.4 84.0 997 35 3 Image --
1985 2 19 00 -19.8 83.0 999 0 0 Image --
1985 2 19 06 -20.4 82.0 999 0 0 Image --
< Cyclone 198506 1985 Season Cyclone 198508 >

Help